Negotin, Serbia
Current Conditions -  °F | °C
As of 11:30 AM on Monday 22 Dec 2014 (Local Time) from LRCV Reporting Station
Clear Clear  
Wind Chill:   Ceiling: Unl
Heat Index:   Visibility: 6mi
Dew Point: -2°   Wind: 7mph
Humidity: 65%   Direction: 260°W
Pressure: 30.27"   Gusts: NA
Location:  44.23°N, 22.53°E
Report Text: LRCV 220930Z 26006KT 230V290 CAVOK 04/M02 Q1025
Loading
Personal Weather Stations






























Interactive Weather Map New forecast layout! Learn more

10-Day Weather Forecast

Advertisements
Track Severe Weather on mobile